createdAt,value
2024-04-10T00:00:32.586Z,1.100000024
2024-04-10T00:02:06.845Z,0.800000012
2024-04-10T00:03:11.615Z,1
2024-04-10T00:04:13.196Z,1
2024-04-10T00:05:16.348Z,1.899999976
2024-04-10T00:06:18.712Z,0.800000012
2024-04-10T00:07:20.872Z,1.299999952
2024-04-10T00:08:23.448Z,1.100000024
2024-04-10T00:09:24.771Z,0.800000012
2024-04-10T00:10:27.542Z,1
2024-04-10T00:11:31.130Z,0.899999976
2024-04-10T00:12:33.438Z,0.699999988
2024-04-10T00:14:06.664Z,0.600000024
2024-04-10T00:15:09.011Z,0.400000006
2024-04-10T00:16:13.108Z,1.100000024
2024-04-10T00:17:15.637Z,1
2024-04-10T00:18:18.187Z,0.699999988
2024-04-10T00:19:20.596Z,1
2024-04-10T00:20:22.912Z,1.200000048
2024-04-10T00:21:24.511Z,1.600000024
2024-04-10T00:22:26.815Z,1
2024-04-10T00:23:29.240Z,1
2024-04-10T00:24:31.488Z,0.699999988
2024-04-10T00:25:33.948Z,1.600000024
2024-04-10T00:27:07.794Z,1.399999976
2024-04-10T00:28:09.198Z,0.5
2024-04-10T00:29:11.390Z,0.800000012
2024-04-10T00:30:13.826Z,0.800000012
2024-04-10T00:31:16.186Z,1.100000024
2024-04-10T00:32:18.711Z,0.600000024
2024-04-10T00:33:21.755Z,4
2024-04-10T00:34:23.674Z,0.5
2024-04-10T00:35:25.279Z,0.300000012
2024-04-10T00:36:27.652Z,1.700000048
2024-04-10T00:37:29.929Z,1
2024-04-10T00:38:32.340Z,1.100000024
2024-04-10T00:40:05.514Z,0.800000012
2024-04-10T00:41:07.654Z,1
2024-04-10T00:42:09.815Z,0.600000024
2024-04-10T00:43:12.345Z,2
2024-04-10T00:44:14.894Z,0.800000012
2024-04-10T00:45:17.430Z,1.799999952
2024-04-10T00:46:20.211Z,2.900000095
2024-04-10T00:47:21.961Z,2.599999905
2024-04-10T00:48:23.398Z,0.699999988
2024-04-10T00:49:25.083Z,1.700000048
2024-04-10T00:50:27.683Z,1
2024-04-10T00:51:30.082Z,1.100000024
2024-04-10T00:52:32.580Z,0.800000012
2024-04-10T00:54:06.393Z,1.100000024
2024-04-10T00:55:08.384Z,2.900000095
2024-04-10T00:56:11.409Z,1.700000048
2024-04-10T00:57:14.155Z,1.399999976
2024-04-10T00:58:16.125Z,1.600000024
2024-04-10T00:59:19.013Z,0.800000012
2024-04-10T01:00:21.086Z,1.200000048
2024-04-10T01:01:24.220Z,1.799999952
2024-04-10T01:02:25.489Z,2.599999905
2024-04-10T01:03:27.400Z,1.200000048
2024-04-10T01:04:30.676Z,1.5
2024-04-10T01:05:33.579Z,0.800000012
2024-04-10T01:07:07.140Z,1.299999952
2024-04-10T01:08:09.231Z,1.299999952
2024-04-10T01:09:11.145Z,1.399999976
2024-04-10T01:10:14.206Z,1.399999976
2024-04-10T01:11:15.638Z,1.799999952
2024-04-10T01:12:18.094Z,1.700000048
2024-04-10T01:13:21.135Z,1
2024-04-10T01:14:23.239Z,1.200000048
2024-04-10T01:15:25.281Z,1.399999976
2024-04-10T01:16:27.350Z,2.200000048
2024-04-10T01:17:29.422Z,1.700000048
2024-04-10T01:18:31.525Z,0.5
2024-04-10T01:20:05.707Z,1.799999952
2024-04-10T01:21:08.217Z,1.200000048
2024-04-10T01:22:10.194Z,0.600000024
2024-04-10T01:23:12.188Z,1.799999952
2024-04-10T01:24:14.112Z,0.899999976
2024-04-10T01:25:16.661Z,0.699999988
2024-04-10T01:26:18.866Z,1.200000048
2024-04-10T01:27:20.666Z,1.100000024
2024-04-10T01:28:22.593Z,1.5
2024-04-10T01:29:24.850Z,1.100000024
2024-04-10T01:30:27.557Z,1
2024-04-10T01:31:31.286Z,2.400000095
2024-04-10T01:33:05.264Z,1.5
2024-04-10T01:34:07.380Z,1.5
2024-04-10T01:35:09.632Z,1.600000024
2024-04-10T01:36:11.674Z,0.800000012
2024-04-10T01:37:13.782Z,1.200000048
2024-04-10T01:38:15.865Z,1.5
2024-04-10T01:39:18.268Z,1.299999952
2024-04-10T01:40:20.681Z,2.400000095
2024-04-10T01:41:23.179Z,1.200000048
2024-04-10T01:42:25.615Z,1.100000024
2024-04-10T01:43:28.921Z,2
2024-04-10T01:44:30.940Z,2.400000095
2024-04-10T01:45:33.530Z,2
2024-04-10T01:47:07.768Z,0.899999976
2024-04-10T01:48:09.748Z,0.899999976
2024-04-10T01:49:11.362Z,1.899999976
2024-04-10T01:50:13.700Z,2.299999952
2024-04-10T01:51:16.148Z,0.699999988
2024-04-10T01:52:18.357Z,1
2024-04-10T01:53:20.909Z,1
2024-04-10T01:54:22.696Z,2
2024-04-10T01:55:24.785Z,1.399999976
2024-04-10T01:56:26.433Z,1.700000048
2024-04-10T01:57:28.412Z,0.800000012
2024-04-10T01:58:30.537Z,0.800000012
2024-04-10T01:59:33.390Z,1.100000024
2024-04-10T02:01:06.681Z,1.5
2024-04-10T02:02:08.777Z,1.200000048
2024-04-10T02:03:10.875Z,1.200000048
2024-04-10T02:04:13.198Z,1.799999952
2024-04-10T02:05:15.523Z,1.299999952
2024-04-10T02:06:17.701Z,1.299999952
2024-04-10T02:07:19.839Z,1.600000024
2024-04-10T02:08:22.415Z,2.299999952
2024-04-10T02:09:24.629Z,1.100000024
2024-04-10T02:10:27.008Z,1.700000048
2024-04-10T02:11:29.075Z,2.599999905
2024-04-10T02:12:30.885Z,1.299999952
2024-04-10T02:13:33.632Z,1.299999952
2024-04-10T02:15:07.698Z,0.899999976
2024-04-10T02:16:10.263Z,1.799999952
2024-04-10T02:17:13.560Z,1.899999976
2024-04-10T02:18:16.491Z,0.899999976
2024-04-10T02:19:18.807Z,1.100000024
2024-04-10T02:20:22.283Z,3
2024-04-10T02:21:24.641Z,2
2024-04-10T02:22:27.184Z,0.800000012
2024-04-10T02:23:29.776Z,1.5
2024-04-10T02:24:32.365Z,1.100000024
2024-04-10T02:26:07.363Z,1.600000024
2024-04-10T02:27:08.788Z,1.899999976
2024-04-10T02:28:10.947Z,0.899999976
2024-04-10T02:29:13.836Z,1.200000048
2024-04-10T02:30:16.250Z,1.899999976
2024-04-10T02:31:18.548Z,2.200000048
2024-04-10T02:32:21.543Z,2.099999905
2024-04-10T02:33:24.382Z,3.200000048
2024-04-10T02:34:26.137Z,1.399999976
2024-04-10T02:35:28.924Z,1.299999952
2024-04-10T02:36:31.106Z,1.5
2024-04-10T02:38:05.475Z,1.399999976
2024-04-10T02:39:07.896Z,2.5
2024-04-10T02:40:10.630Z,3.299999952
2024-04-10T02:41:13.779Z,0.699999988
2024-04-10T02:42:16.577Z,1.200000048
2024-04-10T02:43:18.792Z,1
2024-04-10T02:44:20.340Z,1.299999952
2024-04-10T02:45:23.307Z,2
2024-04-10T02:46:25.757Z,1.100000024
2024-04-10T02:47:27.828Z,1.799999952
2024-04-10T02:48:29.886Z,1
2024-04-10T02:49:33.586Z,1.200000048
2024-04-10T02:51:07.329Z,0.899999976
2024-04-10T02:52:09.337Z,1.100000024
2024-04-10T02:53:12.353Z,1.299999952
2024-04-10T02:54:14.157Z,1
2024-04-10T02:55:16.199Z,0.899999976
2024-04-10T02:56:18.282Z,1.200000048
2024-04-10T02:57:20.557Z,0.800000012
2024-04-10T02:58:22.038Z,1.5
2024-04-10T02:59:24.787Z,0.800000012
2024-04-10T03:00:27.239Z,2
2024-04-10T03:01:29.757Z,1.600000024
2024-04-10T03:02:32.143Z,1.899999976
2024-04-10T03:04:07.078Z,0.600000024
2024-04-10T03:05:09.699Z,1.299999952
2024-04-10T03:06:11.708Z,2.599999905
2024-04-10T03:07:15.010Z,0.699999988
2024-04-10T03:08:17.225Z,1.299999952
2024-04-10T03:09:20.456Z,0.600000024
2024-04-10T03:10:22.656Z,1.200000048
2024-04-10T03:11:24.923Z,0.899999976
2024-04-10T03:12:26.902Z,1.100000024
2024-04-10T03:13:29.914Z,1
2024-04-10T03:14:33.343Z,1.100000024
2024-04-10T03:16:06.826Z,1.600000024
2024-04-10T03:17:09.368Z,0.800000012
2024-04-10T03:18:12.874Z,1.200000048
2024-04-10T03:19:14.148Z,2.099999905
2024-04-10T03:20:17.176Z,0.800000012
2024-04-10T03:21:19.834Z,1.600000024
2024-04-10T03:22:21.673Z,1.200000048
2024-04-10T03:23:23.780Z,2.200000048
2024-04-10T03:24:26.232Z,1.600000024
2024-04-10T03:25:29.076Z,1
2024-04-10T03:26:31.296Z,1.899999976
2024-04-10T03:28:05.164Z,1.700000048
2024-04-10T03:29:07.671Z,1.299999952
2024-04-10T03:30:09.696Z,1.700000048
2024-04-10T03:31:11.739Z,1.600000024
2024-04-10T03:32:13.940Z,2
2024-04-10T03:33:15.830Z,1.700000048
2024-04-10T03:34:18.303Z,2
2024-04-10T03:35:19.582Z,1.399999976
2024-04-10T03:36:21.703Z,1.399999976
2024-04-10T03:37:23.711Z,3
2024-04-10T03:38:25.831Z,2
2024-04-10T03:39:28.074Z,1.5
2024-04-10T03:40:31.205Z,1
2024-04-10T03:41:34.272Z,1.200000048
2024-04-10T03:43:07.704Z,2.5
2024-04-10T03:44:09.703Z,1.799999952
2024-04-10T03:45:11.700Z,1.899999976
2024-04-10T03:46:13.766Z,1.600000024
2024-04-10T03:47:16.107Z,1.299999952
2024-04-10T03:48:18.378Z,1.5
2024-04-10T03:49:20.227Z,2.5
2024-04-10T03:50:22.300Z,3.400000095
2024-04-10T03:51:24.673Z,1.600000024
2024-04-10T03:52:27.201Z,1.600000024
2024-04-10T03:53:29.554Z,2
2024-04-10T03:54:31.325Z,2.299999952
2024-04-10T03:56:05.278Z,1.5
2024-04-10T03:57:07.203Z,2.099999905
2024-04-10T03:58:09.255Z,2.5
2024-04-10T03:59:11.210Z,1.600000024
2024-04-10T04:00:13.168Z,1.600000024
2024-04-10T04:01:15.259Z,1.5
2024-04-10T04:02:17.328Z,2
2024-04-10T04:03:19.339Z,1.899999976
2024-04-10T04:04:21.255Z,2.299999952
2024-04-10T04:05:23.204Z,1.399999976
2024-04-10T04:06:25.894Z,1.700000048
2024-04-10T04:07:27.834Z,1.299999952
2024-04-10T04:08:30.126Z,2.799999952
2024-04-10T04:09:32.653Z,2
2024-04-10T04:11:05.903Z,2
2024-04-10T04:12:07.908Z,2
2024-04-10T04:13:09.685Z,2.099999905
2024-04-10T04:14:11.756Z,2
2024-04-10T04:15:13.867Z,2.200000048
2024-04-10T04:16:15.373Z,2
2024-04-10T04:17:17.479Z,1.600000024
2024-04-10T04:18:19.486Z,1.5
2024-04-10T04:19:21.352Z,1.5
2024-04-10T04:20:23.480Z,1.5
2024-04-10T04:21:25.820Z,1.5
2024-04-10T04:22:27.919Z,1.700000048
2024-04-10T04:23:30.157Z,2.599999905
2024-04-10T04:24:32.783Z,1.399999976
2024-04-10T04:26:08.269Z,2.5
2024-04-10T04:27:10.679Z,8.300000191
2024-04-10T04:28:12.709Z,17.10000038
2024-04-10T04:29:14.867Z,11.19999981
2024-04-10T04:30:17.228Z,2.200000048
2024-04-10T04:31:19.281Z,1.399999976
2024-04-10T04:32:21.312Z,1.399999976
2024-04-10T04:33:23.404Z,1.5
2024-04-10T04:34:25.359Z,3
2024-04-10T04:35:26.819Z,2.5
2024-04-10T04:36:29.036Z,3.400000095
2024-04-10T04:37:30.857Z,2.400000095
2024-04-10T04:38:33.414Z,2.099999905
2024-04-10T04:40:07.900Z,1.899999976
2024-04-10T04:41:09.835Z,3.299999952
2024-04-10T04:42:11.922Z,2.299999952
2024-04-10T04:43:14.226Z,2.299999952
2024-04-10T04:44:16.248Z,2
2024-04-10T04:45:18.244Z,1.799999952
2024-04-10T04:46:20.236Z,1.600000024
2024-04-10T04:47:21.749Z,1.899999976
2024-04-10T04:48:24.172Z,1.799999952
2024-04-10T04:49:26.247Z,2
2024-04-10T04:50:28.516Z,2.200000048
2024-04-10T04:51:30.811Z,2
2024-04-10T04:53:04.786Z,1.799999952
2024-04-10T04:54:06.791Z,2.200000048
2024-04-10T04:55:08.790Z,1.700000048
2024-04-10T04:56:10.249Z,1.700000048
2024-04-10T04:57:12.742Z,2.5
2024-04-10T04:58:15.227Z,1.799999952
2024-04-10T04:59:17.207Z,1.5
2024-04-10T05:00:19.814Z,1.799999952
2024-04-10T05:01:22.342Z,2
2024-04-10T05:02:24.318Z,1.799999952
2024-04-10T05:03:26.140Z,2.400000095
2024-04-10T05:04:28.612Z,2
2024-04-10T05:05:31.577Z,1.600000024
2024-04-10T05:07:04.965Z,1.700000048
2024-04-10T05:08:07.252Z,1.700000048
2024-04-10T05:09:09.809Z,3.700000048
2024-04-10T05:10:11.960Z,1.899999976
2024-04-10T05:11:13.573Z,2.799999952
2024-04-10T05:12:15.625Z,2
2024-04-10T05:13:18.663Z,2.599999905
2024-04-10T05:14:21.165Z,2.400000095
2024-04-10T05:15:23.522Z,1.700000048
2024-04-10T05:16:26.307Z,1.700000048
2024-04-10T05:17:29.211Z,2.599999905
2024-04-10T05:18:31.563Z,2.400000095
2024-04-10T05:20:05.365Z,2
2024-04-10T05:21:07.795Z,3.400000095
2024-04-10T05:22:10.392Z,2.700000048
2024-04-10T05:23:12.849Z,4.5
2024-04-10T05:24:14.514Z,2.599999905
2024-04-10T05:25:16.831Z,1.700000048
2024-04-10T05:26:19.128Z,1.799999952
2024-04-10T05:27:22.238Z,2.299999952
2024-04-10T05:28:24.709Z,2.299999952
2024-04-10T05:29:26.741Z,1.799999952
2024-04-10T05:30:29.155Z,3.299999952
2024-04-10T05:31:31.403Z,2
2024-04-10T05:33:04.851Z,2
2024-04-10T05:34:07.272Z,2.900000095
2024-04-10T05:35:09.261Z,2.099999905
2024-04-10T05:36:11.333Z,1.5
2024-04-10T05:37:14.248Z,2
2024-04-10T05:38:16.344Z,1.700000048
2024-04-10T05:39:18.879Z,1.799999952
2024-04-10T05:40:21.243Z,2
2024-04-10T05:41:24.248Z,4.099999905
2024-04-10T05:42:25.859Z,2.5
2024-04-10T05:43:28.062Z,1.899999976
2024-04-10T05:44:30.329Z,2.400000095
2024-04-10T05:45:32.883Z,2.200000048
2024-04-10T05:47:06.326Z,3.900000095
2024-04-10T05:48:09.368Z,2.700000048
2024-04-10T05:49:11.516Z,3.299999952
2024-04-10T05:50:13.798Z,3.5
2024-04-10T05:51:16.293Z,2.599999905
2024-04-10T05:52:18.250Z,4
2024-04-10T05:53:20.702Z,2.900000095
2024-04-10T05:54:23.690Z,2.099999905
2024-04-10T05:55:25.107Z,2.5
2024-04-10T05:56:27.936Z,2.400000095
2024-04-10T05:57:29.702Z,2.200000048
2024-04-10T05:58:31.733Z,2.299999952
2024-04-10T06:00:05.176Z,3.700000048
2024-04-10T06:01:07.357Z,2.200000048
2024-04-10T06:02:09.817Z,3.400000095
2024-04-10T06:03:12.339Z,2.700000048
2024-04-10T06:04:14.698Z,2.099999905
2024-04-10T06:05:16.802Z,2.099999905
2024-04-10T06:06:18.898Z,2.700000048
2024-04-10T06:07:21.430Z,2.400000095
2024-04-10T06:08:23.855Z,2.299999952
2024-04-10T06:09:26.083Z,2.400000095
2024-04-10T06:10:28.391Z,2.5
2024-04-10T06:11:30.753Z,1.700000048
2024-04-10T06:13:05.338Z,2.099999905
2024-04-10T06:14:07.798Z,2.5
2024-04-10T06:15:10.225Z,2.700000048
2024-04-10T06:16:12.076Z,1.799999952
2024-04-10T06:17:14.274Z,2.099999905
2024-04-10T06:18:16.818Z,2.700000048
2024-04-10T06:19:19.327Z,2.099999905
2024-04-10T06:20:20.934Z,1.799999952
2024-04-10T06:21:22.949Z,1.700000048
2024-04-10T06:22:24.985Z,1.700000048
2024-04-10T06:23:27.060Z,2
2024-04-10T06:24:29.837Z,2.599999905
2024-04-10T06:26:04.161Z,3.200000048
2024-04-10T06:27:06.318Z,7
2024-04-10T06:28:08.810Z,1.799999952
2024-04-10T06:29:11.289Z,2.099999905
2024-04-10T06:30:13.781Z,1.700000048
2024-04-10T06:31:15.695Z,2.700000048
2024-04-10T06:32:18.580Z,5.599999905
2024-04-10T06:33:20.853Z,2.900000095
2024-04-10T06:34:23.370Z,2.5
2024-04-10T06:35:25.803Z,2
2024-04-10T06:36:28.235Z,1.799999952
2024-04-10T06:37:30.343Z,2.299999952
2024-04-10T06:39:03.822Z,2.400000095
2024-04-10T06:40:06.283Z,3
2024-04-10T06:41:09.581Z,3
2024-04-10T06:42:11.721Z,4
2024-04-10T06:43:13.928Z,2.700000048
2024-04-10T06:44:16.452Z,2.400000095
2024-04-10T06:45:18.746Z,2.099999905
2024-04-10T06:46:21.201Z,2.700000048
2024-04-10T06:47:23.397Z,2.799999952
2024-04-10T06:48:27.107Z,1.799999952
2024-04-10T06:49:29.452Z,3.099999905
2024-04-10T06:51:04.307Z,2.799999952
2024-04-10T06:52:05.840Z,5.199999809
2024-04-10T06:53:08.156Z,2.900000095
2024-04-10T06:54:10.577Z,2.799999952
2024-04-10T06:55:13.778Z,2.400000095
2024-04-10T06:56:16.281Z,2.200000048
2024-04-10T06:57:19.146Z,3
2024-04-10T06:58:21.148Z,2.700000048
2024-04-10T06:59:23.420Z,1.799999952
2024-04-10T07:00:25.771Z,3
2024-04-10T07:01:28.226Z,2.299999952
2024-04-10T07:02:31.399Z,3.099999905
2024-04-10T07:04:05.280Z,2.400000095
2024-04-10T07:05:07.471Z,2.799999952
2024-04-10T07:06:09.683Z,4.400000095
2024-04-10T07:07:11.726Z,3.400000095
2024-04-10T07:08:14.784Z,2.299999952
2024-04-10T07:09:17.263Z,4.900000095
2024-04-10T07:10:19.232Z,3.200000048
2024-04-10T07:11:21.598Z,1.399999976
2024-04-10T07:12:23.422Z,2.900000095
2024-04-10T07:13:25.674Z,2.200000048
2024-04-10T07:14:27.774Z,2.299999952
2024-04-10T07:15:29.980Z,2.099999905
2024-04-10T07:17:05.277Z,2.5
2024-04-10T07:18:07.328Z,2.400000095
2024-04-10T07:19:09.668Z,2.700000048
2024-04-10T07:20:11.812Z,1.899999976
2024-04-10T07:21:14.171Z,2.099999905
2024-04-10T07:22:16.243Z,1.799999952
2024-04-10T07:23:18.784Z,2.200000048
2024-04-10T07:24:20.774Z,1.399999976
2024-04-10T07:25:22.416Z,3.299999952
2024-04-10T07:26:24.881Z,2
2024-04-10T07:27:27.232Z,1.399999976
2024-04-10T07:28:31.100Z,2.200000048
2024-04-10T07:30:05.314Z,2.599999905
2024-04-10T07:31:07.873Z,2.799999952
2024-04-10T07:32:10.327Z,4.300000191
2024-04-10T07:33:13.123Z,3.5
2024-04-10T07:34:16.141Z,3.200000048
2024-04-10T07:35:18.274Z,1.799999952
2024-04-10T07:36:20.257Z,4
2024-04-10T07:37:22.788Z,2.299999952
2024-04-10T07:38:25.335Z,2.5
2024-04-10T07:39:27.772Z,2.400000095
2024-04-10T07:40:30.048Z,2
2024-04-10T07:42:03.923Z,1.799999952
2024-04-10T07:43:06.192Z,2.200000048
2024-04-10T07:44:08.638Z,2.099999905
2024-04-10T07:45:10.708Z,2.700000048
2024-04-10T07:46:12.867Z,2.5
2024-04-10T07:47:15.432Z,2.099999905
2024-04-10T07:48:17.875Z,3.099999905
2024-04-10T07:49:19.890Z,2.400000095
2024-04-10T07:50:21.891Z,1.799999952
2024-04-10T07:51:23.776Z,1.700000048
2024-04-10T07:52:27.779Z,2.400000095
2024-04-10T07:53:31.850Z,2.299999952
2024-04-10T07:55:04.589Z,2
2024-04-10T07:56:07.259Z,3.5
2024-04-10T07:57:09.579Z,3.599999905
2024-04-10T07:58:16.234Z,2.799999952
2024-04-10T07:59:18.291Z,3.400000095
2024-04-10T08:00:20.677Z,2.599999905
2024-04-10T08:01:23.088Z,3.599999905
2024-04-10T08:02:25.903Z,2.299999952
2024-04-10T08:03:28.210Z,4.699999809
2024-04-10T08:04:30.507Z,1.799999952
2024-04-10T08:06:03.753Z,3.5
2024-04-10T08:07:06.068Z,4.699999809
2024-04-10T08:08:08.264Z,3.900000095
2024-04-10T08:09:10.267Z,4.199999809
2024-04-10T08:10:12.612Z,2.5
2024-04-10T08:11:14.924Z,3.400000095
2024-04-10T08:12:16.882Z,2.799999952
2024-04-10T08:13:18.788Z,2.900000095
2024-04-10T08:14:21.795Z,2.299999952
2024-04-10T08:15:23.732Z,3.700000048
2024-04-10T08:16:26.556Z,2.799999952
2024-04-10T08:17:29.249Z,3.099999905
2024-04-10T08:18:31.708Z,2
2024-04-10T08:20:05.736Z,1.399999976
2024-04-10T08:21:07.638Z,4.199999809
2024-04-10T08:22:09.626Z,3.099999905
2024-04-10T08:23:11.736Z,2.5
2024-04-10T08:24:14.683Z,3.700000048
2024-04-10T08:25:16.768Z,2.099999905
2024-04-10T08:26:19.432Z,5.099999905
2024-04-10T08:27:21.701Z,3.099999905
2024-04-10T08:28:23.746Z,3.900000095
2024-04-10T08:29:26.072Z,3.5
2024-04-10T08:30:28.575Z,4.099999905
2024-04-10T08:32:07.650Z,5.5
2024-04-10T08:34:06.979Z,4.300000191
2024-04-10T08:35:09.373Z,1.399999976
2024-04-10T08:36:11.450Z,3
2024-04-10T08:37:13.725Z,4.5
2024-04-10T08:38:16.241Z,3.599999905
2024-04-10T08:39:19.687Z,3
2024-04-10T08:40:22.731Z,3.5
2024-04-10T08:41:24.808Z,6.099999905
2024-04-10T08:42:26.912Z,2.599999905
2024-04-10T08:43:28.903Z,3.400000095
2024-04-10T08:45:02.184Z,4.599999905
2024-04-10T08:46:05.143Z,4.099999905
2024-04-10T08:47:07.333Z,4.099999905
2024-04-10T08:48:09.322Z,2.900000095
2024-04-10T08:49:11.298Z,3.099999905
2024-04-10T08:50:13.793Z,4.199999809
2024-04-10T08:51:15.909Z,5.599999905
2024-04-10T08:52:18.242Z,3.400000095
2024-04-10T08:53:20.682Z,3.400000095
2024-04-10T08:54:23.847Z,3.400000095
2024-04-10T08:55:25.991Z,3.299999952
2024-04-10T08:56:28.246Z,4.400000095
2024-04-10T08:57:31.034Z,2.099999905
2024-04-10T08:59:04.786Z,4.099999905
2024-04-10T09:00:07.290Z,4.5
2024-04-10T09:01:10.099Z,2.5
2024-04-10T09:02:12.382Z,2.700000048
2024-04-10T09:03:15.279Z,7.5
2024-04-10T09:04:17.974Z,3.5
2024-04-10T09:05:20.114Z,2.299999952
2024-04-10T09:06:22.258Z,3.5
2024-04-10T09:07:24.181Z,3.400000095
2024-04-10T09:08:26.495Z,4.099999905
2024-04-10T09:09:29.089Z,7.099999905
2024-04-10T09:11:02.843Z,7.099999905
2024-04-10T09:12:05.229Z,6.599999905
2024-04-10T09:13:07.834Z,5.300000191
2024-04-10T09:14:09.701Z,4.699999809
2024-04-10T09:15:12.807Z,2.299999952
2024-04-10T09:16:14.898Z,5.199999809
2024-04-10T09:17:16.915Z,4.099999905
2024-04-10T09:18:18.787Z,3
2024-04-10T09:19:21.295Z,2.700000048
2024-04-10T09:20:24.190Z,2.799999952
2024-04-10T09:21:26.557Z,3.799999952
2024-04-10T09:22:28.896Z,4.5
2024-04-10T09:24:02.711Z,3.400000095
2024-04-10T09:25:04.352Z,5.599999905
2024-04-10T09:26:06.414Z,4.5
2024-04-10T09:27:08.422Z,3.599999905
2024-04-10T09:28:10.351Z,1.899999976
2024-04-10T09:29:13.307Z,3.700000048
2024-04-10T09:30:15.615Z,3.5
2024-04-10T09:31:17.670Z,4.400000095
2024-04-10T09:32:19.861Z,3.700000048
2024-04-10T09:33:21.829Z,2.200000048
2024-04-10T09:34:24.195Z,2.900000095
2024-04-10T09:35:25.782Z,1.299999952
2024-04-10T09:36:27.872Z,2.700000048
2024-04-10T09:37:29.843Z,3.400000095
2024-04-10T09:39:03.010Z,3.200000048
2024-04-10T09:40:05.013Z,2.5
2024-04-10T09:41:07.664Z,2.400000095
2024-04-10T09:42:10.196Z,3.900000095
2024-04-10T09:43:12.165Z,2.700000048
2024-04-10T09:44:15.283Z,5.400000095
2024-04-10T09:45:17.152Z,6.199999809
2024-04-10T09:46:19.156Z,3
2024-04-10T09:47:21.238Z,4.5
2024-04-10T09:48:23.428Z,2.299999952
2024-04-10T09:49:25.388Z,3.200000048
2024-04-10T09:50:27.409Z,3.299999952
2024-04-10T09:51:30.368Z,5.099999905
2024-04-10T09:53:03.685Z,2.5
2024-04-10T09:54:05.718Z,3.099999905
2024-04-10T09:55:07.296Z,3.599999905
2024-04-10T09:56:09.592Z,2.700000048
2024-04-10T09:57:11.979Z,4.400000095
2024-04-10T09:58:14.652Z,4.099999905
2024-04-10T09:59:16.770Z,4.099999905
2024-04-10T10:00:18.841Z,6.400000095
2024-04-10T10:01:21.889Z,4.900000095
2024-04-10T10:02:22.800Z,3.299999952
2024-04-10T10:03:24.345Z,2.400000095
2024-04-10T10:04:25.644Z,4.400000095
2024-04-10T10:05:30.918Z,3.200000048
2024-04-10T10:06:29.604Z,3.599999905
2024-04-10T10:08:04.294Z,5
2024-04-10T10:09:07.633Z,2
2024-04-10T10:10:10.293Z,4.5
2024-04-10T10:11:13.199Z,4.099999905
2024-04-10T10:12:14.757Z,2.799999952
2024-04-10T10:13:16.875Z,4.099999905
2024-04-10T10:14:19.346Z,3.599999905
2024-04-10T10:15:21.603Z,4
2024-04-10T10:16:23.792Z,3.799999952
2024-04-10T10:17:25.221Z,2.900000095
2024-04-10T10:18:33.530Z,4.800000191
2024-04-10T10:19:30.697Z,4.099999905
2024-04-10T10:21:04.780Z,5.800000191
2024-04-10T10:22:09.342Z,4.099999905
2024-04-10T10:23:12.295Z,4
2024-04-10T10:24:11.427Z,2.200000048
2024-04-10T10:25:12.576Z,2.599999905
2024-04-10T10:26:15.161Z,4.699999809
2024-04-10T10:27:17.432Z,4.199999809
2024-04-10T10:28:20.168Z,4.099999905
2024-04-10T10:29:21.684Z,2.5
2024-04-10T10:30:23.730Z,2.400000095
2024-04-10T10:31:25.931Z,3.700000048
2024-04-10T10:32:27.996Z,4.400000095
2024-04-10T10:33:30.564Z,4
2024-04-10T10:35:03.772Z,7.199999809
2024-04-10T10:36:08.311Z,6.300000191
2024-04-10T10:37:10.375Z,3.400000095
2024-04-10T10:38:12.278Z,4.099999905
2024-04-10T10:39:14.183Z,3.400000095
2024-04-10T10:40:16.230Z,3.400000095
2024-04-10T10:41:19.432Z,2.400000095
2024-04-10T10:42:20.848Z,1.799999952
2024-04-10T10:43:22.434Z,3.099999905
2024-04-10T10:44:24.458Z,3
2024-04-10T10:45:28.147Z,3.200000048
2024-04-10T10:47:02.823Z,3.099999905
2024-04-10T10:48:05.741Z,2.799999952
2024-04-10T10:49:07.313Z,4.300000191
2024-04-10T10:50:08.795Z,6
2024-04-10T10:51:11.498Z,4.699999809
2024-04-10T10:52:13.632Z,3.599999905
2024-04-10T10:53:16.929Z,3.099999905
2024-04-10T10:54:19.319Z,1.799999952
2024-04-10T10:55:22.168Z,2.200000048
2024-04-10T10:56:24.350Z,2.799999952
2024-04-10T10:57:27.207Z,2.200000048
2024-04-10T10:58:29.188Z,3.5
2024-04-10T11:00:01.312Z,2.400000095
2024-04-10T11:01:03.721Z,1.799999952
2024-04-10T11:02:06.342Z,2.400000095
2024-04-10T11:03:16.542Z,1.899999976
2024-04-10T11:04:13.052Z,3.200000048
2024-04-10T11:05:14.528Z,3.099999905
2024-04-10T11:06:16.785Z,2.799999952
2024-04-10T11:07:18.575Z,3.200000048
2024-04-10T11:08:20.686Z,3.799999952
2024-04-10T11:09:22.727Z,4.300000191
2024-04-10T11:10:25.829Z,3.200000048
2024-04-10T11:11:28.612Z,3.299999952
2024-04-10T11:13:01.309Z,1.700000048
2024-04-10T11:14:03.346Z,3.400000095
2024-04-10T11:15:05.745Z,4
2024-04-10T11:16:09.191Z,3.299999952
2024-04-10T11:17:11.906Z,3.200000048
2024-04-10T11:18:13.877Z,2.900000095
2024-04-10T11:19:15.645Z,5.300000191
2024-04-10T11:20:17.823Z,1.5
2024-04-10T11:21:20.652Z,1.700000048
2024-04-10T11:22:24.340Z,2.799999952
2024-04-10T11:23:26.488Z,3
2024-04-10T11:24:28.412Z,3.900000095
2024-04-10T11:26:01.939Z,2.200000048
2024-04-10T11:27:04.214Z,1.899999976
2024-04-10T11:28:06.368Z,1.100000024
2024-04-10T11:29:10.297Z,2.599999905
2024-04-10T11:30:10.709Z,1.399999976
2024-04-10T11:31:12.774Z,4.400000095
2024-04-10T11:32:14.798Z,2.299999952
2024-04-10T11:33:17.018Z,3.700000048
2024-04-10T11:34:19.389Z,3
2024-04-10T11:35:21.300Z,3
2024-04-10T11:36:23.711Z,2.299999952
2024-04-10T11:37:25.956Z,2.900000095
2024-04-10T11:38:29.045Z,4.699999809
2024-04-10T11:40:04.715Z,1.600000024
2024-04-10T11:41:07.417Z,2.200000048
2024-04-10T11:42:09.685Z,6
2024-04-10T11:43:12.389Z,2.900000095
2024-04-10T11:44:15.363Z,3.900000095
2024-04-10T11:45:17.052Z,2.900000095
2024-04-10T11:46:19.726Z,3.799999952
2024-04-10T11:47:22.882Z,2.5
2024-04-10T11:48:25.057Z,2.599999905
2024-04-10T11:49:26.682Z,3.599999905
2024-04-10T11:50:30.266Z,2.599999905
2024-04-10T11:52:04.075Z,2.799999952
2024-04-10T11:53:07.098Z,4.300000191
2024-04-10T11:54:09.042Z,2.400000095
2024-04-10T11:55:11.413Z,2.200000048
2024-04-10T11:56:13.819Z,2.700000048
2024-04-10T11:57:15.466Z,2
2024-04-10T11:58:20.604Z,2
2024-04-10T11:59:25.416Z,2.599999905
2024-04-10T12:00:28.888Z,4.199999809
2024-04-10T12:02:02.874Z,2.5
2024-04-10T12:03:05.708Z,3.200000048
2024-04-10T12:04:07.970Z,2.400000095
2024-04-10T12:05:10.532Z,3
2024-04-10T12:06:12.706Z,3.099999905
2024-04-10T12:07:15.306Z,3.400000095
2024-04-10T12:08:17.380Z,2.200000048
2024-04-10T12:09:19.740Z,2.299999952
2024-04-10T12:10:22.148Z,3.599999905
2024-04-10T12:11:24.266Z,3.900000095
2024-04-10T12:12:26.740Z,3
2024-04-10T12:13:28.314Z,3.700000048
2024-04-10T12:15:02.342Z,3.5
2024-04-10T12:16:04.695Z,3
2024-04-10T12:17:09.774Z,2.700000048
2024-04-10T12:18:12.902Z,3.099999905
2024-04-10T12:19:15.272Z,3
2024-04-10T12:20:18.757Z,3
2024-04-10T12:21:20.662Z,3.400000095
2024-04-10T12:22:22.721Z,3.5
2024-04-10T12:23:24.791Z,1.700000048